sensor_id;sensor_type;location;lat;lon;timestamp;pressure;altitude;pressure_sealevel;temperature;humidity
39223;BME280;24936;46.328;11.026;2023-06-10T00:02:15;94012.97;;;15.18;92.69
39223;BME280;24936;46.328;11.026;2023-06-10T00:04:42;94009.22;;;15.27;92.05
39223;BME280;24936;46.328;11.026;2023-06-10T00:07:07;94010.16;;;15.35;91.65
39223;BME280;24936;46.328;11.026;2023-06-10T00:09:36;94006.06;;;15.47;90.80
39223;BME280;24936;46.328;11.026;2023-06-10T00:12:06;94010.72;;;15.45;90.68
39223;BME280;24936;46.328;11.026;2023-06-10T00:14:32;94012.53;;;15.29;91.20
39223;BME280;24936;46.328;11.026;2023-06-10T00:16:58;94011.59;;;15.22;92.56
39223;BME280;24936;46.328;11.026;2023-06-10T00:19:24;94021.78;;;15.34;93.01
39223;BME280;24936;46.328;11.026;2023-06-10T00:21:55;94014.94;;;15.39;93.56
39223;BME280;24936;46.328;11.026;2023-06-10T00:24:21;94016.56;;;15.40;92.60
39223;BME280;24936;46.328;11.026;2023-06-10T00:26:47;94022.88;;;15.39;91.93
39223;BME280;24936;46.328;11.026;2023-06-10T00:29:12;94018.56;;;15.38;92.82
39223;BME280;24936;46.328;11.026;2023-06-10T00:31:39;94027.25;;;15.32;93.18
39223;BME280;24936;46.328;11.026;2023-06-10T00:34:05;94020.66;;;15.28;93.92
39223;BME280;24936;46.328;11.026;2023-06-10T00:36:30;94024.47;;;15.25;93.99
39223;BME280;24936;46.328;11.026;2023-06-10T00:38:57;94013.25;;;15.23;93.68
39223;BME280;24936;46.328;11.026;2023-06-10T00:41:23;94016.13;;;15.37;93.95
39223;BME280;24936;46.328;11.026;2023-06-10T00:43:48;94024.34;;;15.42;93.81
39223;BME280;24936;46.328;11.026;2023-06-10T00:46:14;94026.19;;;15.41;93.55
39223;BME280;24936;46.328;11.026;2023-06-10T00:48:41;94012.63;;;15.36;93.65
39223;BME280;24936;46.328;11.026;2023-06-10T00:51:07;94016.66;;;15.32;94.67
39223;BME280;24936;46.328;11.026;2023-06-10T00:53:35;94021.03;;;15.40;94.11
39223;BME280;24936;46.328;11.026;2023-06-10T00:56:02;94011.47;;;15.39;94.20
39223;BME280;24936;46.328;11.026;2023-06-10T00:58:27;94010.16;;;15.35;94.63
39223;BME280;24936;46.328;11.026;2023-06-10T01:00:53;94008.63;;;15.40;94.54
39223;BME280;24936;46.328;11.026;2023-06-10T01:03:18;94001.91;;;15.29;94.71
39223;BME280;24936;46.328;11.026;2023-06-10T01:05:50;93998.50;;;15.21;94.36
39223;BME280;24936;46.328;11.026;2023-06-10T01:11:00;94005.69;;;15.35;94.27
39223;BME280;24936;46.328;11.026;2023-06-10T01:13:27;93992.34;;;15.43;93.90
39223;BME280;24936;46.328;11.026;2023-06-10T01:15:57;93999.31;;;15.44;92.91
39223;BME280;24936;46.328;11.026;2023-06-10T01:18:22;93998.72;;;15.34;93.12
39223;BME280;24936;46.328;11.026;2023-06-10T01:20:48;93995.31;;;15.25;94.63
39223;BME280;24936;46.328;11.026;2023-06-10T01:23:14;93993.16;;;15.29;94.31
39223;BME280;24936;46.328;11.026;2023-06-10T01:25:46;93995.06;;;15.35;93.37
39223;BME280;24936;46.328;11.026;2023-06-10T01:29:02;93990.78;;;15.34;93.56
39223;BME280;24936;46.328;11.026;2023-06-10T01:31:18;93988.91;;;15.20;94.06
39223;BME280;24936;46.328;11.026;2023-06-10T01:33:50;93984.72;;;15.25;94.58
39223;BME280;24936;46.328;11.026;2023-06-10T01:36:17;93991.09;;;15.16;94.64
39223;BME280;24936;46.328;11.026;2023-06-10T01:38:44;93983.50;;;15.13;94.82
39223;BME280;24936;46.328;11.026;2023-06-10T01:41:12;93985.69;;;15.09;93.33
39223;BME280;24936;46.328;11.026;2023-06-10T01:43:39;93992.28;;;15.13;93.34
39223;BME280;24936;46.328;11.026;2023-06-10T01:46:05;93992.56;;;15.19;92.16
39223;BME280;24936;46.328;11.026;2023-06-10T01:48:32;93993.75;;;15.16;91.93
39223;BME280;24936;46.328;11.026;2023-06-10T01:50:58;93992.19;;;15.07;92.13
39223;BME280;24936;46.328;11.026;2023-06-10T01:53:23;93996.59;;;15.14;91.99
39223;BME280;24936;46.328;11.026;2023-06-10T01:55:49;93999.63;;;15.26;91.00
39223;BME280;24936;46.328;11.026;2023-06-10T01:58:14;93999.56;;;15.35;90.35
39223;BME280;24936;46.328;11.026;2023-06-10T02:00:40;93997.91;;;15.34;90.94
39223;BME280;24936;46.328;11.026;2023-06-10T02:03:05;93999.47;;;15.28;92.17
39223;BME280;24936;46.328;11.026;2023-06-10T02:05:31;93989.41;;;15.23;93.39
39223;BME280;24936;46.328;11.026;2023-06-10T02:07:57;93997.34;;;15.23;94.04
39223;BME280;24936;46.328;11.026;2023-06-10T02:10:22;93991.94;;;15.17;94.52
39223;BME280;24936;46.328;11.026;2023-06-10T02:12:48;93985.88;;;15.08;95.17
39223;BME280;24936;46.328;11.026;2023-06-10T02:15:13;93978.59;;;15.10;95.29
39223;BME280;24936;46.328;11.026;2023-06-10T02:17:39;93973.44;;;15.08;95.51
39223;BME280;24936;46.328;11.026;2023-06-10T02:20:04;93975.00;;;15.03;96.25
39223;BME280;24936;46.328;11.026;2023-06-10T02:22:32;93977.13;;;14.84;97.75
39223;BME280;24936;46.328;11.026;2023-06-10T02:24:58;93979.91;;;14.67;99.96
39223;BME280;24936;46.328;11.026;2023-06-10T02:27:23;93987.72;;;14.61;100.00
39223;BME280;24936;46.328;11.026;2023-06-10T02:29:48;93975.34;;;14.53;100.00
39223;BME280;24936;46.328;11.026;2023-06-10T02:32:14;93981.34;;;14.47;100.00
39223;BME280;24936;46.328;11.026;2023-06-10T02:34:39;93981.69;;;14.44;100.00
39223;BME280;24936;46.328;11.026;2023-06-10T02:37:05;93983.06;;;14.40;100.00
39223;BME280;24936;46.328;11.026;2023-06-10T02:39:30;93981.22;;;14.40;100.00
39223;BME280;24936;46.328;11.026;2023-06-10T02:41:56;93974.94;;;14.41;100.00
39223;BME280;24936;46.328;11.026;2023-06-10T02:44:21;93981.06;;;14.42;100.00
39223;BME280;24936;46.328;11.026;2023-06-10T02:46:47;93973.81;;;14.35;100.00
39223;BME280;24936;46.328;11.026;2023-06-10T02:49:12;93980.41;;;14.40;100.00
39223;BME280;24936;46.328;11.026;2023-06-10T02:51:38;93982.06;;;14.41;100.00
39223;BME280;24936;46.328;11.026;2023-06-10T02:54:04;93979.41;;;14.41;100.00
39223;BME280;24936;46.328;11.026;2023-06-10T02:56:30;93987.84;;;14.36;100.00
39223;BME280;24936;46.328;11.026;2023-06-10T02:58:55;93984.41;;;14.35;100.00
39223;BME280;24936;46.328;11.026;2023-06-10T03:01:21;93977.63;;;14.33;100.00
39223;BME280;24936;46.328;11.026;2023-06-10T03:03:46;93985.25;;;14.28;100.00
39223;BME280;24936;46.328;11.026;2023-06-10T03:06:13;93978.13;;;14.28;100.00
39223;BME280;24936;46.328;11.026;2023-06-10T03:08:39;93985.91;;;14.30;100.00
39223;BME280;24936;46.328;11.026;2023-06-10T03:11:05;93982.75;;;14.34;100.00
39223;BME280;24936;46.328;11.026;2023-06-10T03:13:30;93985.72;;;14.31;100.00
39223;BME280;24936;46.328;11.026;2023-06-10T03:15:56;93988.03;;;14.34;100.00
39223;BME280;24936;46.328;11.026;2023-06-10T03:18:25;93974.16;;;14.32;100.00
39223;BME280;24936;46.328;11.026;2023-06-10T03:20:51;93977.44;;;14.34;100.00
39223;BME280;24936;46.328;11.026;2023-06-10T03:23:17;93986.72;;;14.30;100.00
39223;BME280;24936;46.328;11.026;2023-06-10T03:25:43;93981.28;;;14.32;100.00
39223;BME280;24936;46.328;11.026;2023-06-10T03:28:09;93990.03;;;14.32;100.00
39223;BME280;24936;46.328;11.026;2023-06-10T03:30:35;93987.56;;;14.31;100.00
39223;BME280;24936;46.328;11.026;2023-06-10T03:33:00;93985.44;;;14.26;100.00
39223;BME280;24936;46.328;11.026;2023-06-10T03:35:26;93986.44;;;14.25;100.00
39223;BME280;24936;46.328;11.026;2023-06-10T03:37:52;93982.81;;;14.18;100.00
39223;BME280;24936;46.328;11.026;2023-06-10T03:40:17;93979.53;;;14.16;100.00
39223;BME280;24936;46.328;11.026;2023-06-10T03:42:43;93983.53;;;14.12;100.00
39223;BME280;24936;46.328;11.026;2023-06-10T03:45:11;93983.53;;;14.12;100.00
39223;BME280;24936;46.328;11.026;2023-06-10T03:47:37;93977.28;;;14.04;100.00
39223;BME280;24936;46.328;11.026;2023-06-10T03:50:03;93983.75;;;14.02;100.00
39223;BME280;24936;46.328;11.026;2023-06-10T03:52:29;93985.91;;;13.98;100.00
39223;BME280;24936;46.328;11.026;2023-06-10T03:54:55;93990.69;;;14.03;100.00
39223;BME280;24936;46.328;11.026;2023-06-10T03:57:20;93990.84;;;14.01;100.00
39223;BME280;24936;46.328;11.026;2023-06-10T03:59:46;93986.91;;;13.97;100.00
39223;BME280;24936;46.328;11.026;2023-06-10T04:02:11;93994.88;;;13.89;100.00
39223;BME280;24936;46.328;11.026;2023-06-10T04:04:37;93991.22;;;13.90;100.00
39223;BME280;24936;46.328;11.026;2023-06-10T04:07:03;93990.56;;;13.96;100.00
39223;BME280;24936;46.328;11.026;2023-06-10T04:09:29;94000.94;;;14.06;100.00
39223;BME280;24936;46.328;11.026;2023-06-10T04:11:54;93995.31;;;14.01;100.00
39223;BME280;24936;46.328;11.026;2023-06-10T04:14:20;94003.72;;;14.04;100.00
39223;BME280;24936;46.328;11.026;2023-06-10T04:16:45;94003.41;;;14.07;100.00
39223;BME280;24936;46.328;11.026;2023-06-10T04:19:11;93999.78;;;14.00;100.00
39223;BME280;24936;46.328;11.026;2023-06-10T04:21:36;93994.13;;;14.12;100.00
39223;BME280;24936;46.328;11.026;2023-06-10T04:24:02;93996.91;;;14.18;100.00
39223;BME280;24936;46.328;11.026;2023-06-10T04:26:28;93996.25;;;14.16;100.00
39223;BME280;24936;46.328;11.026;2023-06-10T04:28:53;93988.84;;;14.12;100.00
39223;BME280;24936;46.328;11.026;2023-06-10T04:31:19;93999.41;;;14.12;100.00
39223;BME280;24936;46.328;11.026;2023-06-10T04:33:44;93991.47;;;14.12;100.00
39223;BME280;24936;46.328;11.026;2023-06-10T04:36:10;93995.25;;;14.17;100.00
39223;BME280;24936;46.328;11.026;2023-06-10T04:38:35;93997.31;;;14.30;100.00
39223;BME280;24936;46.328;11.026;2023-06-10T04:41:01;93994.31;;;14.33;100.00
39223;BME280;24936;46.328;11.026;2023-06-10T04:43:27;93993.47;;;14.41;100.00
39223;BME280;24936;46.328;11.026;2023-06-10T04:45:54;93994.16;;;14.58;100.00
39223;BME280;24936;46.328;11.026;2023-06-10T04:48:20;93993.75;;;14.78;100.00
39223;BME280;24936;46.328;11.026;2023-06-10T04:50:45;93987.16;;;14.74;100.00
39223;BME280;24936;46.328;11.026;2023-06-10T04:53:11;93996.19;;;14.79;100.00
39223;BME280;24936;46.328;11.026;2023-06-10T04:55:36;93992.09;;;14.77;100.00
39223;BME280;24936;46.328;11.026;2023-06-10T04:58:01;93996.84;;;14.81;100.00
39223;BME280;24936;46.328;11.026;2023-06-10T05:00:27;94004.56;;;14.91;100.00
39223;BME280;24936;46.328;11.026;2023-06-10T05:02:53;94001.03;;;14.99;100.00
39223;BME280;24936;46.328;11.026;2023-06-10T05:05:18;94005.34;;;15.00;100.00
39223;BME280;24936;46.328;11.026;2023-06-10T05:07:44;94002.28;;;14.88;100.00
39223;BME280;24936;46.328;11.026;2023-06-10T05:10:10;93999.06;;;14.93;100.00
39223;BME280;24936;46.328;11.026;2023-06-10T05:12:38;93996.53;;;14.99;100.00
39223;BME280;24936;46.328;11.026;2023-06-10T05:15:05;93989.59;;;14.98;100.00
39223;BME280;24936;46.328;11.026;2023-06-10T05:17:30;93992.47;;;15.12;100.00
39223;BME280;24936;46.328;11.026;2023-06-10T05:19:55;93992.75;;;15.17;100.00
39223;BME280;24936;46.328;11.026;2023-06-10T05:22:21;93995.22;;;15.19;100.00
39223;BME280;24936;46.328;11.026;2023-06-10T05:24:49;93980.81;;;15.21;100.00
39223;BME280;24936;46.328;11.026;2023-06-10T05:27:14;93991.06;;;15.24;100.00
39223;BME280;24936;46.328;11.026;2023-06-10T05:29:40;93987.66;;;15.31;100.00
39223;BME280;24936;46.328;11.026;2023-06-10T05:32:05;93992.91;;;15.54;100.00
39223;BME280;24936;46.328;11.026;2023-06-10T05:34:31;93988.88;;;15.73;100.00
39223;BME280;24936;46.328;11.026;2023-06-10T05:36:57;93992.03;;;15.92;100.00
39223;BME280;24936;46.328;11.026;2023-06-10T05:39:22;93988.16;;;16.09;100.00
39223;BME280;24936;46.328;11.026;2023-06-10T05:41:48;93983.78;;;16.38;97.90
39223;BME280;24936;46.328;11.026;2023-06-10T05:44:13;93989.66;;;16.48;97.35
39223;BME280;24936;46.328;11.026;2023-06-10T05:46:38;93979.38;;;16.45;96.02
39223;BME280;24936;46.328;11.026;2023-06-10T05:49:04;93982.47;;;16.64;95.97
39223;BME280;24936;46.328;11.026;2023-06-10T05:51:29;93975.34;;;16.49;94.27
39223;BME280;24936;46.328;11.026;2023-06-10T05:53:55;93975.75;;;16.31;94.38
39223;BME280;24936;46.328;11.026;2023-06-10T05:56:20;93969.78;;;16.44;94.56
39223;BME280;24936;46.328;11.026;2023-06-10T05:58:48;93965.91;;;16.47;95.14
39223;BME280;24936;46.328;11.026;2023-06-10T06:01:13;93970.50;;;16.38;94.27
39223;BME280;24936;46.328;11.026;2023-06-10T06:03:39;93975.72;;;16.46;95.01
39223;BME280;24936;46.328;11.026;2023-06-10T06:06:05;93973.16;;;16.53;95.82
39223;BME280;24936;46.328;11.026;2023-06-10T06:08:30;93972.69;;;16.71;94.54
39223;BME280;24936;46.328;11.026;2023-06-10T06:10:56;93972.44;;;16.66;93.25
39223;BME280;24936;46.328;11.026;2023-06-10T06:13:22;93978.28;;;16.76;93.48
39223;BME280;24936;46.328;11.026;2023-06-10T06:15:48;93974.00;;;16.97;92.78
39223;BME280;24936;46.328;11.026;2023-06-10T06:18:13;93969.94;;;17.01;93.25
39223;BME280;24936;46.328;11.026;2023-06-10T06:20:38;93969.56;;;17.04;92.70
39223;BME280;24936;46.328;11.026;2023-06-10T06:23:04;93967.41;;;17.15;91.83
39223;BME280;24936;46.328;11.026;2023-06-10T06:25:29;93971.94;;;17.21;91.78
39223;BME280;24936;46.328;11.026;2023-06-10T06:27:55;93973.13;;;17.40;90.72
39223;BME280;24936;46.328;11.026;2023-06-10T06:30:20;93980.50;;;17.45;91.86
39223;BME280;24936;46.328;11.026;2023-06-10T06:32:46;93972.41;;;17.60;90.54
39223;BME280;24936;46.328;11.026;2023-06-10T06:35:11;93971.34;;;17.54;88.85
39223;BME280;24936;46.328;11.026;2023-06-10T06:37:36;93970.13;;;17.56;89.27
39223;BME280;24936;46.328;11.026;2023-06-10T06:40:02;93964.50;;;17.73;89.85
39223;BME280;24936;46.328;11.026;2023-06-10T06:42:29;93968.09;;;17.94;89.60
39223;BME280;24936;46.328;11.026;2023-06-10T06:44:54;93963.06;;;18.06;86.77
39223;BME280;24936;46.328;11.026;2023-06-10T06:47:20;93970.03;;;18.07;85.86
39223;BME280;24936;46.328;11.026;2023-06-10T06:49:47;93975.41;;;18.20;87.50
39223;BME280;24936;46.328;11.026;2023-06-10T06:52:13;93966.94;;;18.52;85.83
39223;BME280;24936;46.328;11.026;2023-06-10T06:54:39;93971.00;;;18.41;85.33
39223;BME280;24936;46.328;11.026;2023-06-10T06:57:04;93978.31;;;18.32;84.43
39223;BME280;24936;46.328;11.026;2023-06-10T06:59:31;93969.81;;;18.63;85.20
39223;BME280;24936;46.328;11.026;2023-06-10T07:01:56;93969.44;;;18.73;85.60
39223;BME280;24936;46.328;11.026;2023-06-10T07:04:22;93978.53;;;19.19;84.03
39223;BME280;24936;46.328;11.026;2023-06-10T07:06:48;93974.44;;;19.23;81.47
39223;BME280;24936;46.328;11.026;2023-06-10T07:09:14;93976.06;;;19.38;82.16
39223;BME280;24936;46.328;11.026;2023-06-10T07:11:39;93971.34;;;19.40;79.97
39223;BME280;24936;46.328;11.026;2023-06-10T07:14:06;93969.91;;;19.31;81.08
39223;BME280;24936;46.328;11.026;2023-06-10T07:16:31;93961.63;;;19.79;81.23
39223;BME280;24936;46.328;11.026;2023-06-10T07:18:57;93964.94;;;19.68;79.54
39223;BME280;24936;46.328;11.026;2023-06-10T07:21:23;93968.25;;;19.63;79.22
39223;BME280;24936;46.328;11.026;2023-06-10T07:23:48;93967.69;;;20.20;78.58
39223;BME280;24936;46.328;11.026;2023-06-10T07:26:14;93956.16;;;20.26;76.00
39223;BME280;24936;46.328;11.026;2023-06-10T07:28:43;93964.34;;;20.38;76.89
39223;BME280;24936;46.328;11.026;2023-06-10T07:31:08;93957.22;;;20.64;73.76
39223;BME280;24936;46.328;11.026;2023-06-10T07:33:34;93954.50;;;21.10;74.76
39223;BME280;24936;46.328;11.026;2023-06-10T07:35:59;93949.09;;;21.16;72.63
39223;BME280;24936;46.328;11.026;2023-06-10T07:38:25;93943.78;;;21.10;72.20
39223;BME280;24936;46.328;11.026;2023-06-10T07:40:51;93951.75;;;21.42;74.44
39223;BME280;24936;46.328;11.026;2023-06-10T07:43:17;93949.50;;;22.08;73.39
39223;BME280;24936;46.328;11.026;2023-06-10T07:45:43;93948.50;;;22.21;70.15
39223;BME280;24936;46.328;11.026;2023-06-10T07:48:08;93943.66;;;22.29;69.57
39223;BME280;24936;46.328;11.026;2023-06-10T07:50:34;93941.88;;;22.42;69.96
39223;BME280;24936;46.328;11.026;2023-06-10T07:53:00;93943.56;;;22.55;70.17
39223;BME280;24936;46.328;11.026;2023-06-10T07:55:25;93938.91;;;22.32;70.22
39223;BME280;24936;46.328;11.026;2023-06-10T07:57:52;93934.81;;;22.10;71.02
39223;BME280;24936;46.328;11.026;2023-06-10T08:00:17;93929.75;;;21.83;70.55
39223;BME280;24936;46.328;11.026;2023-06-10T08:02:43;93930.28;;;21.92;71.90
39223;BME280;24936;46.328;11.026;2023-06-10T08:05:09;93930.63;;;22.33;71.44
39223;BME280;24936;46.328;11.026;2023-06-10T08:07:35;93921.91;;;22.56;69.51
39223;BME280;24936;46.328;11.026;2023-06-10T08:10:01;93923.50;;;22.76;67.91
39223;BME280;24936;46.328;11.026;2023-06-10T08:12:26;93921.31;;;22.97;68.73
39223;BME280;24936;46.328;11.026;2023-06-10T08:14:52;93917.22;;;23.06;65.70
39223;BME280;24936;46.328;11.026;2023-06-10T08:17:17;93912.03;;;22.69;67.94
39223;BME280;24936;46.328;11.026;2023-06-10T08:19:43;93914.63;;;22.26;68.51
39223;BME280;24936;46.328;11.026;2023-06-10T08:22:08;93896.03;;;21.94;70.04
39223;BME280;24936;46.328;11.026;2023-06-10T08:24:35;93901.91;;;22.03;69.51
39223;BME280;24936;46.328;11.026;2023-06-10T08:27:00;93903.78;;;22.03;69.93
39223;BME280;24936;46.328;11.026;2023-06-10T08:29:26;93901.69;;;21.67;69.61
39223;BME280;24936;46.328;11.026;2023-06-10T08:31:51;93907.06;;;22.05;69.59
39223;BME280;24936;46.328;11.026;2023-06-10T08:34:16;93910.78;;;22.83;69.41
39223;BME280;24936;46.328;11.026;2023-06-10T08:36:43;93909.75;;;23.39;67.67
39223;BME280;24936;46.328;11.026;2023-06-10T08:39:09;93906.44;;;23.96;67.69
39223;BME280;24936;46.328;11.026;2023-06-10T08:41:37;93901.78;;;24.73;65.69
39223;BME280;24936;46.328;11.026;2023-06-10T08:44:28;93899.56;;;25.50;61.58
39223;BME280;24936;46.328;11.026;2023-06-10T08:46:55;93893.50;;;26.93;56.17
39223;BME280;24936;46.328;11.026;2023-06-10T08:49:25;93891.84;;;27.20;57.95
39223;BME280;24936;46.328;11.026;2023-06-10T08:51:55;93887.19;;;28.44;53.09
39223;BME280;24936;46.328;11.026;2023-06-10T08:55:03;93890.63;;;29.44;52.54
39223;BME280;24936;46.328;11.026;2023-06-10T08:57:27;93879.16;;;29.83;50.02
39223;BME280;24936;46.328;11.026;2023-06-10T08:59:54;93891.06;;;27.24;54.57
39223;BME280;24936;46.328;11.026;2023-06-10T09:02:20;93896.38;;;25.53;59.50
39223;BME280;24936;46.328;11.026;2023-06-10T09:04:49;93892.53;;;24.40;63.24
39223;BME280;24936;46.328;11.026;2023-06-10T09:07:15;93885.69;;;25.24;60.93
39223;BME280;24936;46.328;11.026;2023-06-10T09:09:44;93885.09;;;25.95;59.36
39223;BME280;24936;46.328;11.026;2023-06-10T09:12:12;93892.84;;;25.35;57.64
39223;BME280;24936;46.328;11.026;2023-06-10T09:14:38;93889.56;;;27.76;55.27
39223;BME280;24936;46.328;11.026;2023-06-10T09:17:05;93887.84;;;28.82;51.76
39223;BME280;24936;46.328;11.026;2023-06-10T09:19:31;93879.75;;;29.54;47.55
39223;BME280;24936;46.328;11.026;2023-06-10T09:21:57;93872.38;;;30.07;47.75
39223;BME280;24936;46.328;11.026;2023-06-10T09:24:24;93862.19;;;30.33;46.48
39223;BME280;24936;46.328;11.026;2023-06-10T09:26:50;93871.94;;;30.39;45.18
39223;BME280;24936;46.328;11.026;2023-06-10T09:29:16;93864.03;;;29.67;43.04
39223;BME280;24936;46.328;11.026;2023-06-10T09:31:43;93866.97;;;30.62;45.38
39223;BME280;24936;46.328;11.026;2023-06-10T09:34:11;93867.44;;;30.74;46.75
39223;BME280;24936;46.328;11.026;2023-06-10T09:36:38;93866.25;;;32.14;41.40
39223;BME280;24936;46.328;11.026;2023-06-10T09:39:04;93860.72;;;32.00;39.28
39223;BME280;24936;46.328;11.026;2023-06-10T09:41:34;93858.22;;;32.71;39.06
39223;BME280;24936;46.328;11.026;2023-06-10T09:44:13;93857.56;;;32.99;40.14
39223;BME280;24936;46.328;11.026;2023-06-10T09:46:42;93852.84;;;33.90;39.25
39223;BME280;24936;46.328;11.026;2023-06-10T09:49:13;93848.78;;;34.01;37.95
39223;BME280;24936;46.328;11.026;2023-06-10T09:51:57;93854.00;;;33.36;35.67
39223;BME280;24936;46.328;11.026;2023-06-10T09:54:22;93838.06;;;34.33;34.83
39223;BME280;24936;46.328;11.026;2023-06-10T09:56:49;93839.22;;;33.04;38.26
39223;BME280;24936;46.328;11.026;2023-06-10T09:59:15;93840.91;;;33.52;39.60
39223;BME280;24936;46.328;11.026;2023-06-10T10:01:41;93840.94;;;33.33;35.63
39223;BME280;24936;46.328;11.026;2023-06-10T10:04:07;93852.59;;;31.95;39.78
39223;BME280;24936;46.328;11.026;2023-06-10T10:06:33;93849.41;;;28.75;43.24
39223;BME280;24936;46.328;11.026;2023-06-10T10:08:59;93847.44;;;27.43;48.77
39223;BME280;24936;46.328;11.026;2023-06-10T10:11:25;93841.38;;;26.60;49.86
39223;BME280;24936;46.328;11.026;2023-06-10T10:13:52;93842.56;;;25.98;52.78
39223;BME280;24936;46.328;11.026;2023-06-10T10:16:25;93832.25;;;27.74;47.66
39223;BME280;24936;46.328;11.026;2023-06-10T10:18:55;93829.53;;;29.88;43.87
39223;BME280;24936;46.328;11.026;2023-06-10T10:21:26;93824.09;;;31.92;41.56
39223;BME280;24936;46.328;11.026;2023-06-10T10:24:02;93838.97;;;32.00;41.13
39223;BME280;24936;46.328;11.026;2023-06-10T10:26:29;93833.56;;;31.95;38.73
39223;BME280;24936;46.328;11.026;2023-06-10T10:29:07;93835.09;;;32.69;38.79
39223;BME280;24936;46.328;11.026;2023-06-10T10:31:36;93826.06;;;33.45;40.77
39223;BME280;24936;46.328;11.026;2023-06-10T10:34:09;93819.91;;;31.76;40.22
39223;BME280;24936;46.328;11.026;2023-06-10T10:36:37;93813.53;;;31.61;42.94
39223;BME280;24936;46.328;11.026;2023-06-10T10:39:04;93821.09;;;32.13;40.77
39223;BME280;24936;46.328;11.026;2023-06-10T10:41:31;93813.38;;;30.33;42.61
39223;BME280;24936;46.328;11.026;2023-06-10T10:43:58;93814.47;;;29.45;45.92
39223;BME280;24936;46.328;11.026;2023-06-10T10:46:24;93818.88;;;32.83;39.82
39223;BME280;24936;46.328;11.026;2023-06-10T10:48:53;93810.53;;;33.45;35.01
39223;BME280;24936;46.328;11.026;2023-06-10T10:51:19;93806.75;;;34.16;36.24
39223;BME280;24936;46.328;11.026;2023-06-10T10:54:11;93803.13;;;34.07;34.74
39223;BME280;24936;46.328;11.026;2023-06-10T10:59:43;93799.81;;;33.35;37.85
39223;BME280;24936;46.328;11.026;2023-06-10T11:02:09;93791.16;;;33.61;37.29
39223;BME280;24936;46.328;11.026;2023-06-10T11:04:35;93785.28;;;33.53;40.68
39223;BME280;24936;46.328;11.026;2023-06-10T11:07:07;93786.25;;;33.91;38.46
39223;BME280;24936;46.328;11.026;2023-06-10T11:09:32;93779.84;;;33.53;37.78
39223;BME280;24936;46.328;11.026;2023-06-10T11:11:58;93782.91;;;32.23;38.04
39223;BME280;24936;46.328;11.026;2023-06-10T11:14:29;93780.28;;;32.94;38.93
39223;BME280;24936;46.328;11.026;2023-06-10T11:16:58;93774.84;;;32.56;37.57
39223;BME280;24936;46.328;11.026;2023-06-10T11:19:37;93771.78;;;32.19;37.26
39223;BME280;24936;46.328;11.026;2023-06-10T11:22:06;93773.31;;;32.50;39.99
39223;BME280;24936;46.328;11.026;2023-06-10T11:24:32;93769.75;;;33.21;37.95
39223;BME280;24936;46.328;11.026;2023-06-10T11:27:20;93769.94;;;33.11;36.25
39223;BME280;24936;46.328;11.026;2023-06-10T11:32:29;93770.44;;;32.60;37.04
39223;BME280;24936;46.328;11.026;2023-06-10T11:34:55;93757.25;;;32.29;36.60
39223;BME280;24936;46.328;11.026;2023-06-10T11:37:21;93748.59;;;32.66;38.11
39223;BME280;24936;46.328;11.026;2023-06-10T11:39:50;93751.97;;;32.38;36.63
39223;BME280;24936;46.328;11.026;2023-06-10T11:42:17;93751.44;;;32.17;38.95
39223;BME280;24936;46.328;11.026;2023-06-10T11:44:51;93745.25;;;32.69;37.39
39223;BME280;24936;46.328;11.026;2023-06-10T11:47:17;93746.44;;;32.62;38.52
39223;BME280;24936;46.328;11.026;2023-06-10T11:49:44;93750.19;;;31.85;37.90
39223;BME280;24936;46.328;11.026;2023-06-10T11:52:11;93736.19;;;32.16;36.60
39223;BME280;24936;46.328;11.026;2023-06-10T11:54:37;93734.13;;;31.64;39.33
39223;BME280;24936;46.328;11.026;2023-06-10T11:57:03;93732.69;;;32.15;40.16
39223;BME280;24936;46.328;11.026;2023-06-10T11:59:30;93723.25;;;31.64;39.87
39223;BME280;24936;46.328;11.026;2023-06-10T12:01:56;93716.25;;;32.26;37.69
39223;BME280;24936;46.328;11.026;2023-06-10T12:04:21;93715.88;;;32.32;38.32
39223;BME280;24936;46.328;11.026;2023-06-10T12:06:51;93719.34;;;32.14;42.26
39223;BME280;24936;46.328;11.026;2023-06-10T12:09:27;93715.28;;;32.36;34.84
39223;BME280;24936;46.328;11.026;2023-06-10T12:12:01;93721.22;;;32.57;35.90
39223;BME280;24936;46.328;11.026;2023-06-10T12:14:50;93723.50;;;33.63;36.79
39223;BME280;24936;46.328;11.026;2023-06-10T12:17:17;93726.53;;;32.48;35.47
39223;BME280;24936;46.328;11.026;2023-06-10T12:19:42;93733.94;;;32.61;37.26
39223;BME280;24936;46.328;11.026;2023-06-10T12:22:08;93723.63;;;32.20;37.73
39223;BME280;24936;46.328;11.026;2023-06-10T12:24:43;93725.03;;;31.25;37.96
39223;BME280;24936;46.328;11.026;2023-06-10T12:27:12;93727.31;;;30.84;42.23
39223;BME280;24936;46.328;11.026;2023-06-10T12:29:38;93727.16;;;30.99;38.07
39223;BME280;24936;46.328;11.026;2023-06-10T12:32:04;93717.78;;;29.25;43.51
39223;BME280;24936;46.328;11.026;2023-06-10T12:34:35;93728.78;;;27.26;47.07
39223;BME280;24936;46.328;11.026;2023-06-10T12:37:02;93743.31;;;26.17;50.66
39223;BME280;24936;46.328;11.026;2023-06-10T12:39:30;93732.59;;;25.72;51.70
39223;BME280;24936;46.328;11.026;2023-06-10T12:41:56;93736.75;;;25.41;56.28
39223;BME280;24936;46.328;11.026;2023-06-10T12:44:35;93724.56;;;25.16;55.34
39223;BME280;24936;46.328;11.026;2023-06-10T12:47:07;93719.03;;;24.83;54.18
39223;BME280;24936;46.328;11.026;2023-06-10T12:49:33;93733.63;;;24.70;53.11
39223;BME280;24936;46.328;11.026;2023-06-10T12:52:00;93728.22;;;24.36;54.00
39223;BME280;24936;46.328;11.026;2023-06-10T12:54:26;93732.91;;;24.75;54.86
39223;BME280;24936;46.328;11.026;2023-06-10T12:56:52;93730.75;;;25.33;52.84